Airfield :
LOGIN :

Register | Disclaimer

   EN    FR    IT 

 










Legend :    VFR   Marginal VFR   IFR   Intensive IFR   Very Intensive IFR
Visi :
Ceiling :
>= 8 km
>= 3000ft
5 to 8 km
1000 to 3000 ft
1500m to 5 km
500 to 1000 ft
800 to 1500m
200 to 500 ft
< 800m
< 200 ft
Symbols :   Thunderstorms  Fog  Heavy snow  Heavy precipitations  Wind > 20 kt
SIGMETs :     Misc.  Thunderstorms  Icing  Turbulence  Mountain Waves  Volcanic Ashes






- Airport Elevation : 1058 ft
- IATA code : SCN


EDDR - Saarbrücken

CURRENT METAR :
  • 121720Z 23004KT 9999 FEW043 15/06 Q1010 NOSIG

EXPIRED METARs :
  • 121650Z 19007KT 150V220 9999 FEW043 16/06 Q1010 NOSIG
  • 121620Z 22003KT 150V270 9999 FEW031 15/06 Q1010 NOSIG
  • 121550Z 21006KT 170V250 9999 FEW031 16/06 Q1011 NOSIG
  • 121520Z 25005KT 200V290 9999 FEW031 16/06 Q1011 NOSIG
  • 121450Z 26006KT 230V300 9999 FEW031 15/06 Q1011 NOSIG

TAF TAF EDDR
Valid from the 12 at 18:00 until the 13 at 18:00 UTC


121700Z 1218/1318 VRB03KT 9999 FEW035
TEMPO 1222/1307 2000 BR
PROB30
TEMPO 1302/1306 0800 FG BKN006
BECMG 1308/1310 23009KT
TEMPO 1310/1313 SHRA BKN015CB



MET'MAP, your aeronautical weather chart ! - Copyright ORBIFLY December 2007 - Disclaimer

ORBIFLY MET'MAP TEAM :

Programming & Development : Alexandra Zaïnal
Concept & original design : Baudouin d'Aumeries
Assistance for programming : Marc-Olivier Méhu
Technical & hardware support : Manuel Goepfert

Contact : metmap@orbifly.com




SOURCES & CREDITS :

   NOAA